Time;durP1;ratioP1;P1;durP2;ratioP2;P2;SDS_P1;SDS_P2;PMS_P1;PMS_P2;Temp;Humidity;BMP_temperature;BMP_pressure;BME280_temperature;BME280_humidity;BME280_pressure;Samples;Min_cycle;Max_cycle;Signal;HPM_P1;HPM_P2
2023/04/07 00:00:23;;;;;;;3.13;2.13;;;;;;;2.33;58.97;94367.25;5075826;28;21007;-76
2023/04/07 00:02:50;;;;;;;4.85;2.92;;;;;;;2.39;57.86;94352.75;5099021;28;20772;-75
2023/04/07 00:05:17;;;;;;;4.72;3.10;;;;;;;2.42;57.40;94349.53;5095795;28;20233;-74
2023/04/07 00:07:44;;;;;;;2.70;2.00;;;;;;;2.42;57.67;94353.00;5099185;28;20195;-75
2023/04/07 00:10:11;;;;;;;6.38;3.45;;;;;;;2.46;57.42;94350.56;5101832;28;20263;-75
2023/04/07 00:12:39;;;;;;;4.22;1.90;;;;;;;2.45;56.76;94343.63;5099918;28;20564;-74
2023/04/07 00:15:06;;;;;;;8.27;4.15;;;;;;;2.49;56.57;94347.31;5095891;28;20233;-78
2023/04/07 00:17:33;;;;;;;9.15;3.25;;;;;;;2.58;57.15;94348.28;5098854;28;20202;-74
2023/04/07 00:20:00;;;;;;;5.25;3.13;;;;;;;2.54;56.87;94357.94;5103420;28;20202;-75
2023/04/07 00:22:27;;;;;;;6.88;2.92;;;;;;;2.48;56.89;94343.03;5099743;28;20687;-75
2023/04/07 00:24:54;;;;;;;3.63;1.92;;;;;;;2.59;56.01;94349.88;5081806;28;20209;-75
2023/04/07 00:27:22;;;;;;;6.07;3.22;;;;;;;2.52;56.30;94344.06;5097897;28;20203;-74
2023/04/07 00:29:50;;;;;;;8.07;3.80;;;;;;;2.49;56.58;94341.97;5103748;28;20617;-78
2023/04/07 00:32:16;;;;;;;3.88;2.90;;;;;;;2.58;56.78;94339.47;5097868;28;20262;-74
2023/04/07 00:34:43;;;;;;;6.72;2.70;;;;;;;2.50;56.09;94341.69;5102424;28;20226;-75
2023/04/07 00:37:10;;;;;;;5.40;3.67;;;;;;;2.40;56.57;94341.78;5100712;28;20197;-74
2023/04/07 00:39:37;;;;;;;10.43;3.05;;;;;;;2.38;56.62;94337.81;5089991;27;20198;-75
2023/04/07 00:42:04;;;;;;;6.03;2.97;;;;;;;2.44;58.64;94342.03;5100785;28;20198;-75
2023/04/07 00:44:31;;;;;;;6.82;3.35;;;;;;;2.55;56.58;94337.38;5095377;28;20201;-76
2023/04/07 00:46:59;;;;;;;4.45;3.15;;;;;;;2.55;55.89;94351.53;5096307;28;20243;-74
2023/04/07 00:49:27;;;;;;;5.28;3.00;;;;;;;2.42;56.94;94344.19;5102215;28;20698;-75
2023/04/07 00:51:54;;;;;;;8.45;4.22;;;;;;;2.37;58.48;94352.25;5101989;28;20202;-74
2023/04/07 00:54:22;;;;;;;4.03;1.90;;;;;;;2.35;56.91;94347.19;5094478;28;20267;-73
2023/04/07 00:56:48;;;;;;;5.72;2.65;;;;;;;2.36;56.73;94345.31;5095346;28;20287;-75
2023/04/07 00:59:15;;;;;;;4.53;3.20;;;;;;;2.39;56.93;94344.75;5081530;28;20284;-73
2023/04/07 01:01:46;;;;;;;4.25;2.15;;;;;;;2.33;56.93;94352.00;5095517;28;20224;-76
2023/04/07 01:04:22;;;;;;;6.10;2.20;;;;;;;2.18;57.61;94352.19;5095958;28;20213;-75
2023/04/07 01:06:53;;;;;;;7.47;3.83;;;;;;;2.12;58.61;94335.38;5095090;28;20645;-75
2023/04/07 01:09:25;;;;;;;4.65;2.40;;;;;;;2.17;57.97;94341.78;5098967;28;20202;-74
2023/04/07 01:11:59;;;;;;;7.15;3.08;;;;;;;2.20;58.46;94343.84;5102254;28;20350;-74
2023/04/07 01:14:29;;;;;;;8.15;3.13;;;;;;;2.13;57.22;94342.31;5099315;28;20675;-74
2023/04/07 01:17:00;;;;;;;5.10;2.90;;;;;;;2.24;58.03;94329.66;5094691;28;20277;-75
2023/04/07 01:19:36;;;;;;;4.70;3.10;;;;;;;2.29;57.45;94344.84;5095576;28;20255;-75
2023/04/07 01:22:11;;;;;;;5.75;2.72;;;;;;;2.26;57.21;94334.72;5067608;28;20248;-75
2023/04/07 01:25:06;;;;;;;4.95;2.67;;;;;;;2.27;58.51;94330.97;5085730;28;20206;-75
2023/04/07 01:27:38;;;;;;;3.25;2.08;;;;;;;2.41;57.57;94331.91;5095167;28;20210;-74
2023/04/07 01:30:11;;;;;;;4.70;2.80;;;;;;;2.50;57.17;94335.53;5067477;28;20732;-75
2023/04/07 01:32:41;;;;;;;7.10;3.53;;;;;;;2.55;58.21;94332.81;5098402;28;20273;-75
2023/04/07 01:35:12;;;;;;;3.00;2.15;;;;;;;2.65;57.31;94324.66;5099604;28;20230;-74
2023/04/07 01:37:39;;;;;;;3.15;1.90;;;;;;;2.71;56.88;94328.88;5101847;28;20258;-74
2023/04/07 01:40:09;;;;;;;8.57;3.10;;;;;;;2.75;56.60;94321.88;5098190;28;20289;-75
2023/04/07 01:42:37;;;;;;;4.43;2.35;;;;;;;2.81;56.40;94320.75;5095196;28;20201;-76
2023/04/07 01:45:07;;;;;;;2.95;1.75;;;;;;;2.83;55.73;94315.09;5097927;28;20206;-76
2023/04/07 01:47:36;;;;;;;6.25;2.67;;;;;;;2.88;55.52;94324.91;5074098;28;20255;-76
2023/04/07 01:50:04;;;;;;;4.18;2.95;;;;;;;2.81;55.19;94320.75;5076278;28;20289;-74
2023/04/07 01:52:32;;;;;;;7.43;3.80;;;;;;;2.85;56.10;94311.06;5077752;28;20321;-75
2023/04/07 01:54:59;;;;;;;4.97;3.15;;;;;;;2.82;55.05;94311.63;5095648;28;20230;-75
2023/04/07 01:57:26;;;;;;;4.45;2.35;;;;;;;2.88;55.20;94314.22;5101037;28;20206;-74
2023/04/07 01:59:53;;;;;;;3.45;2.08;;;;;;;3.07;54.68;94312.38;5100333;28;20235;-74
2023/04/07 02:02:22;;;;;;;1.17;1.08;;;;;;;3.13;54.48;94306.69;5094225;28;20221;-74
2023/04/07 02:04:54;;;;;;;2.45;1.50;;;;;;;3.02;56.13;94309.75;5094224;28;20202;-75
2023/04/07 02:07:27;;;;;;;7.10;3.33;;;;;;;2.89;54.66;94310.47;5074569;28;20263;-74
2023/04/07 02:09:57;;;;;;;5.93;2.53;;;;;;;2.85;54.72;94311.06;5087692;28;20221;-74
2023/04/07 02:12:27;;;;;;;8.77;2.58;;;;;;;3.02;54.36;94315.13;5096639;28;20257;-74
2023/04/07 02:14:55;;;;;;;5.30;2.63;;;;;;;3.00;54.90;94317.31;5094843;28;20564;-72
2023/04/07 02:17:24;;;;;;;4.53;3.15;;;;;;;3.06;54.35;94310.78;5098464;28;20713;-77
2023/04/07 02:19:53;;;;;;;3.38;2.45;;;;;;;3.04;54.39;94312.94;5101608;28;20202;-75
2023/04/07 02:22:20;;;;;;;4.03;2.83;;;;;;;2.99;55.11;94313.84;5077364;28;20206;-74
2023/04/07 02:24:47;;;;;;;10.93;3.33;;;;;;;2.98;55.35;94319.47;5087721;28;20220;-74
2023/04/07 02:27:14;;;;;;;4.22;3.00;;;;;;;3.04;54.64;94302.25;5097328;28;20239;-74
2023/04/07 02:29:41;;;;;;;3.83;2.33;;;;;;;3.07;55.54;94309.69;5080901;28;20630;-74
2023/04/07 02:32:07;;;;;;;3.30;2.28;;;;;;;3.14;53.63;94312.84;5097581;28;20255;-74
2023/04/07 02:34:36;;;;;;;3.55;2.20;;;;;;;3.15;54.35;94303.69;5105330;28;20202;-74
2023/04/07 02:37:03;;;;;;;7.80;3.20;;;;;;;3.17;53.66;94306.88;5102202;28;20236;-75
2023/04/07 02:39:29;;;;;;;7.40;3.28;;;;;;;3.18;54.27;94316.50;5098169;28;20251;-74
2023/04/07 02:41:56;;;;;;;2.45;1.92;;;;;;;3.28;53.12;94318.25;5101039;28;20202;-75
2023/04/07 02:44:23;;;;;;;6.93;2.70;;;;;;;3.29;53.53;94315.28;5105169;28;20259;-75
2023/04/07 02:46:50;;;;;;;2.72;1.63;;;;;;;3.34;54.01;94311.75;5102432;28;20235;-74
2023/04/07 02:49:16;;;;;;;9.77;2.90;;;;;;;3.33;53.83;94310.94;5097803;28;20560;-75
2023/04/07 02:51:45;;;;;;;2.28;1.52;;;;;;;3.32;53.68;94313.91;5099973;28;20206;-75
2023/04/07 02:54:12;;;;;;;2.55;2.03;;;;;;;3.21;53.19;94303.34;5104399;28;20226;-76
2023/04/07 02:56:39;;;;;;;5.03;2.45;;;;;;;3.34;54.32;94323.25;5102310;28;20645;-74
2023/04/07 02:59:06;;;;;;;4.18;2.17;;;;;;;3.31;54.30;94326.50;5096930;28;20286;-74
2023/04/07 03:01:33;;;;;;;5.28;2.22;;;;;;;3.42;54.22;94325.25;5099202;28;20225;-75
2023/04/07 03:04:00;;;;;;;3.05;2.08;;;;;;;3.34;53.47;94328.59;5104329;28;20605;-74
2023/04/07 03:06:27;;;;;;;7.13;3.58;;;;;;;3.40;54.04;94324.78;5102987;28;21062;-74
2023/04/07 03:08:55;;;;;;;6.07;3.50;;;;;;;3.39;53.93;94328.53;5086540;28;20252;-75
2023/04/07 03:11:22;;;;;;;4.88;2.83;;;;;;;3.39;54.19;94336.56;5070305;28;20203;-74
2023/04/07 03:13:49;;;;;;;5.28;2.60;;;;;;;3.43;53.85;94332.19;5103303;28;20642;-75
2023/04/07 03:16:15;;;;;;;3.92;2.53;;;;;;;3.38;54.08;94332.28;5102583;28;20286;-74
2023/04/07 03:18:42;;;;;;;6.22;3.88;;;;;;;3.36;54.24;94331.78;5085551;28;20203;-75
2023/04/07 03:21:09;;;;;;;5.45;2.72;;;;;;;3.41;54.22;94322.91;5082826;28;20220;-74
2023/04/07 03:23:35;;;;;;;6.72;3.38;;;;;;;3.35;55.33;94332.88;5078382;28;20194;-73
2023/04/07 03:26:04;;;;;;;2.75;1.75;;;;;;;3.36;54.28;94325.63;5104273;28;20205;-75
2023/04/07 03:28:31;;;;;;;6.22;3.00;;;;;;;3.29;54.46;94317.94;5092886;28;20197;-74
2023/04/07 03:30:57;;;;;;;7.97;3.60;;;;;;;3.30;54.41;94326.78;5115816;28;20206;-75
2023/04/07 03:33:24;;;;;;;6.70;3.70;;;;;;;3.14;55.17;94329.66;5106290;28;20913;-75
2023/04/07 03:35:51;;;;;;;7.00;3.40;;;;;;;3.06;56.20;94322.28;5104219;28;20228;-75
2023/04/07 03:38:18;;;;;;;5.80;2.65;;;;;;;2.91;56.13;94319.00;5109710;28;20198;-74
2023/04/07 03:40:44;;;;;;;6.82;3.72;;;;;;;2.78;56.81;94326.66;5106228;28;20274;-76
2023/04/07 03:43:14;;;;;;;6.53;3.47;;;;;;;2.72;56.98;94327.81;5097894;28;20209;-74
2023/04/07 03:45:41;;;;;;;3.72;2.67;;;;;;;2.72;56.51;94317.13;5081624;28;20252;-74
2023/04/07 03:48:10;;;;;;;3.60;2.03;;;;;;;2.69;57.36;94328.38;5099211;28;20198;-74
2023/04/07 03:50:37;;;;;;;3.83;2.03;;;;;;;2.68;56.77;94325.97;5103039;28;20194;-76
2023/04/07 03:53:04;;;;;;;2.97;2.28;;;;;;;2.75;56.81;94315.72;5093566;28;20661;-74
2023/04/07 03:55:31;;;;;;;3.40;2.60;;;;;;;2.77;56.39;94325.06;5099590;28;20778;-75
2023/04/07 03:57:58;;;;;;;4.45;2.53;;;;;;;2.82;55.74;94319.66;5089711;28;20256;-75
2023/04/07 04:00:26;;;;;;;3.75;2.22;;;;;;;2.92;55.84;94325.94;5103285;28;20202;-75
2023/04/07 04:02:53;;;;;;;4.80;2.47;;;;;;;2.90;55.85;94328.91;5089503;28;20281;-74
2023/04/07 04:05:20;;;;;;;4.25;2.50;;;;;;;2.78;56.45;94323.97;5079556;28;20250;-73
2023/04/07 04:07:47;;;;;;;2.42;1.65;;;;;;;2.84;56.93;94338.09;5105299;28;20202;-76
2023/04/07 04:10:15;;;;;;;3.42;2.50;;;;;;;2.73;56.45;94317.91;5092026;28;20259;-75
2023/04/07 04:12:41;;;;;;;1.80;1.63;;;;;;;2.80;56.19;94329.03;5099030;28;20208;-75
2023/04/07 04:15:09;;;;;;;2.60;2.17;;;;;;;2.91;56.06;94332.38;5104975;28;20205;-74
2023/04/07 04:17:37;;;;;;;5.07;2.38;;;;;;;2.94;56.50;94334.50;5091547;28;20226;-74
2023/04/07 04:20:05;;;;;;;2.05;1.75;;;;;;;2.93;56.46;94338.25;5098814;28;20194;-76
2023/04/07 04:22:32;;;;;;;6.40;2.95;;;;;;;2.99;55.57;94342.47;5085492;28;20203;-75
2023/04/07 04:24:59;;;;;;;5.28;3.03;;;;;;;3.09;55.67;94331.63;5086901;28;20610;-74
2023/04/07 04:27:26;;;;;;;4.78;2.75;;;;;;;3.23;55.29;94337.84;5088058;28;20206;-74
2023/04/07 04:29:53;;;;;;;6.47;3.72;;;;;;;3.32;55.46;94341.47;5098683;28;20198;-73
2023/04/07 04:32:21;;;;;;;7.38;3.75;;;;;;;3.37;55.39;94344.09;5100218;28;20646;-73
2023/04/07 04:34:49;;;;;;;6.45;2.78;;;;;;;3.41;54.20;94350.47;5095448;28;20193;-74
2023/04/07 04:37:16;;;;;;;1.65;1.33;;;;;;;3.36;54.41;94350.53;5096804;27;20316;-73
2023/04/07 04:39:42;;;;;;;4.88;3.22;;;;;;;3.40;55.23;94359.56;5108907;28;20224;-74
2023/04/07 04:42:09;;;;;;;4.97;3.30;;;;;;;3.47;54.46;94357.31;5096497;28;20937;-74
2023/04/07 04:44:36;;;;;;;3.10;1.65;;;;;;;3.48;54.04;94361.59;5102607;28;20198;-75
2023/04/07 04:47:03;;;;;;;7.82;3.22;;;;;;;3.18;58.37;94362.00;5101325;28;20254;-75
2023/04/07 04:49:30;;;;;;;3.63;2.53;;;;;;;2.77;61.48;94361.69;5095100;28;20198;-74
2023/04/07 04:51:58;;;;;;;11.45;4.50;;;;;;;2.49;64.60;94366.00;5095835;28;20202;-74
2023/04/07 04:54:25;;;;;;;5.60;3.40;;;;;;;2.24;66.40;94377.75;5081566;28;20206;-74
2023/04/07 04:56:52;;;;;;;12.00;5.72;;;;;;;2.61;66.11;94369.09;5095059;28;20234;-74
2023/04/07 04:59:18;;;;;;;14.82;5.22;;;;;;;2.51;66.59;94369.19;5081546;28;20217;-74
2023/04/07 05:01:45;;;;;;;7.03;3.70;;;;;;;2.46;66.52;94366.59;5095295;28;20221;-73
2023/04/07 05:04:12;;;;;;;9.75;4.18;;;;;;;2.38;66.94;94372.53;5101722;27;20202;-74
2023/04/07 05:06:39;;;;;;;12.32;5.50;;;;;;;2.39;66.38;94379.50;5088995;28;20206;-74
2023/04/07 05:09:07;;;;;;;10.63;6.40;;;;;;;2.31;66.98;94385.47;5095107;28;20203;-73
2023/04/07 05:11:33;;;;;;;5.82;4.20;;;;;;;2.54;66.83;94378.53;5095730;28;20197;-73
2023/04/07 05:14:00;;;;;;;7.47;3.70;;;;;;;2.47;66.29;94389.56;5080711;28;20226;-73
2023/04/07 05:16:27;;;;;;;6.22;4.43;;;;;;;2.58;65.78;94395.63;5095358;28;20241;-73
2023/04/07 05:18:54;;;;;;;10.60;4.70;;;;;;;2.64;65.52;94389.13;5096070;28;20606;-74
2023/04/07 05:21:20;;;;;;;9.32;4.65;;;;;;;2.92;64.47;94384.81;5094567;28;20294;-74
2023/04/07 05:23:47;;;;;;;7.55;4.95;;;;;;;4.53;60.19;94380.81;5099653;28;20206;-75
2023/04/07 05:26:15;;;;;;;5.93;4.13;;;;;;;5.77;56.01;94368.09;5101336;28;20262;-74
2023/04/07 05:28:42;;;;;;;10.52;5.40;;;;;;;5.93;54.37;94380.13;5088035;28;20244;-75
2023/04/07 05:31:09;;;;;;;9.60;4.22;;;;;;;6.38;53.71;94373.66;5087915;28;20194;-75
2023/04/07 05:33:36;;;;;;;14.10;5.20;;;;;;;5.28;55.69;94375.09;5078232;28;20293;-73
2023/04/07 05:36:02;;;;;;;11.35;5.43;;;;;;;5.09;56.78;94383.25;5101261;28;20229;-77
2023/04/07 05:38:29;;;;;;;8.30;5.22;;;;;;;4.76;57.93;94395.97;5098411;28;20202;-76
2023/04/07 05:40:56;;;;;;;11.68;6.22;;;;;;;4.94;57.88;94387.00;5102001;28;20209;-74
2023/04/07 05:43:24;;;;;;;21.42;5.07;;;;;;;5.04;57.68;94380.69;5087543;28;20618;-74
2023/04/07 05:45:51;;;;;;;9.63;5.85;;;;;;;6.10;55.24;94382.97;5101587;28;20232;-73
2023/04/07 05:48:18;;;;;;;13.95;6.10;;;;;;;7.93;50.65;94372.56;5098614;28;20657;-73
2023/04/07 05:50:45;;;;;;;12.65;7.25;;;;;;;8.02;49.14;94373.38;5095934;28;20200;-73
2023/04/07 05:53:11;;;;;;;9.02;5.60;;;;;;;7.92;49.51;94374.50;5098192;28;20360;-73
2023/04/07 05:55:38;;;;;;;14.77;6.45;;;;;;;6.46;52.20;94377.50;5100657;28;20665;-73
2023/04/07 05:58:05;;;;;;;12.52;6.28;;;;;;;5.35;55.42;94391.56;5098584;28;20229;-75
2023/04/07 06:00:33;;;;;;;11.77;6.40;;;;;;;5.59;55.82;94381.41;5090763;28;20210;-74
2023/04/07 06:03:00;;;;;;;9.48;6.15;;;;;;;5.73;54.83;94381.38;5099293;28;20209;-74
2023/04/07 06:05:27;;;;;;;11.07;6.20;;;;;;;5.82;54.03;94382.22;5094065;28;20263;-75
2023/04/07 06:07:54;;;;;;;8.70;5.38;;;;;;;5.70;54.99;94377.41;5096145;28;20737;-74
2023/04/07 06:10:21;;;;;;;14.95;7.30;;;;;;;7.53;50.28;94378.06;5100716;28;20194;-74
2023/04/07 06:12:47;;;;;;;6.82;4.70;;;;;;;7.67;48.54;94367.94;5099839;28;20254;-75
2023/04/07 06:15:14;;;;;;;11.40;5.95;;;;;;;8.85;45.40;94368.53;5093603;28;20237;-75
2023/04/07 06:17:44;;;;;;;14.10;6.15;;;;;;;11.17;42.39;94352.44;5095183;28;21066;-73
2023/04/07 06:20:11;;;;;;;13.73;5.38;;;;;;;12.46;38.74;94350.56;5100944;28;20733;-73
2023/04/07 06:22:39;;;;;;;13.18;6.18;;;;;;;12.48;38.39;94355.66;5100100;28;20202;-74
2023/04/07 06:25:06;;;;;;;8.13;4.68;;;;;;;12.27;37.85;94365.94;5081138;28;20264;-74
2023/04/07 06:27:33;;;;;;;13.38;6.53;;;;;;;11.13;41.07;94367.81;5080357;28;20276;-74
2023/04/07 06:30:00;;;;;;;18.15;9.98;;;;;;;11.69;39.73;94365.31;5104166;28;20235;-75
2023/04/07 06:32:27;;;;;;;18.27;9.85;;;;;;;11.56;40.30;94355.63;5093877;28;20199;-75
2023/04/07 06:34:55;;;;;;;17.13;9.10;;;;;;;10.98;40.19;94361.09;5100765;28;20256;-75
2023/04/07 06:37:23;;;;;;;15.38;6.75;;;;;;;11.96;38.81;94350.28;5073332;28;20281;-75
2023/04/07 06:39:50;;;;;;;14.57;6.85;;;;;;;12.27;39.09;94349.63;5073936;28;20289;-74
2023/04/07 06:42:17;;;;;;;13.18;7.75;;;;;;;13.38;37.34;94338.63;5100771;28;20210;-74
2023/04/07 06:44:43;;;;;;;12.32;6.65;;;;;;;12.02;38.35;94360.56;5086026;28;20263;-74
2023/04/07 06:47:10;;;;;;;15.85;9.25;;;;;;;11.11;38.53;94363.84;5100633;28;20239;-75
2023/04/07 06:49:37;;;;;;;14.35;8.85;;;;;;;11.83;37.96;94352.22;5094558;28;20253;-76
2023/04/07 06:52:06;;;;;;;15.32;10.60;;;;;;;12.81;37.24;94358.91;5093901;28;20206;-73
2023/04/07 06:54:33;;;;;;;15.38;9.60;;;;;;;13.48;35.90;94342.75;5099537;28;20202;-75
2023/04/07 06:57:00;;;;;;;14.65;9.15;;;;;;;15.18;33.38;94331.84;5100452;28;20701;-76
2023/04/07 06:59:27;;;;;;;18.42;8.73;;;;;;;15.40;32.55;94339.25;5079127;28;20313;-75
2023/04/07 07:01:54;;;;;;;9.13;6.15;;;;;;;16.08;30.97;94338.38;5095100;28;20202;-75
2023/04/07 07:04:20;;;;;;;8.52;5.65;;;;;;;14.78;31.59;94335.81;5078498;28;20997;-75
2023/04/07 07:06:47;;;;;;;11.00;5.15;;;;;;;11.66;34.93;94363.28;5082145;28;20729;-75
2023/04/07 07:09:15;;;;;;;8.80;5.30;;;;;;;10.34;36.70;94368.94;5099432;28;20206;-75
2023/04/07 07:11:42;;;;;;;7.50;4.32;;;;;;;8.85;39.37;94379.34;5100744;28;20298;-76
2023/04/07 07:14:09;;;;;;;8.48;5.18;;;;;;;8.17;41.06;94381.00;5078647;28;20203;-74
2023/04/07 07:16:36;;;;;;;7.47;5.07;;;;;;;8.81;40.13;94367.56;5093163;28;20260;-75
2023/04/07 07:19:02;;;;;;;7.72;4.85;;;;;;;9.32;39.78;94376.59;5085758;28;20202;-75
2023/04/07 07:21:30;;;;;;;7.53;4.95;;;;;;;9.43;39.14;94383.25;5096733;28;20601;-75
2023/04/07 07:23:57;;;;;;;5.28;3.88;;;;;;;8.21;41.01;94377.34;5100937;28;20207;-75
2023/04/07 07:26:25;;;;;;;6.32;2.90;;;;;;;8.56;41.00;94377.34;5103801;28;20248;-79
2023/04/07 07:28:51;;;;;;;4.32;2.70;;;;;;;9.91;39.59;94386.28;5080011;28;20730;-74
2023/04/07 07:31:18;;;;;;;4.65;2.83;;;;;;;10.33;37.55;94378.97;5104117;28;20288;-75
2023/04/07 07:33:47;;;;;;;5.18;2.75;;;;;;;10.81;37.80;94382.19;5100633;28;20731;-73
2023/04/07 07:36:14;;;;;;;10.23;3.50;;;;;;;10.16;38.48;94389.13;5097313;28;20209;-73
2023/04/07 07:38:41;;;;;;;9.23;4.95;;;;;;;11.17;37.11;94373.34;5098659;28;20249;-73
2023/04/07 07:41:08;;;;;;;10.05;3.70;;;;;;;11.43;35.97;94381.16;5071359;28;20762;-74
2023/04/07 07:43:36;;;;;;;4.55;2.85;;;;;;;11.02;36.66;94393.75;5081143;28;20759;-74
2023/04/07 07:46:03;;;;;;;11.18;3.60;;;;;;;11.07;37.41;94390.81;5103247;28;20212;-73
2023/04/07 07:48:30;;;;;;;4.18;2.70;;;;;;;10.29;39.29;94398.91;5102093;28;20221;-73
2023/04/07 07:50:57;;;;;;;13.88;3.42;;;;;;;10.25;38.60;94400.72;5095484;28;20202;-72
2023/04/07 07:53:24;;;;;;;5.30;2.72;;;;;;;9.91;38.52;94394.38;5096867;28;20202;-72
2023/04/07 07:55:51;;;;;;;7.07;3.70;;;;;;;9.72;38.82;94396.72;5103486;28;20293;-74
2023/04/07 07:58:17;;;;;;;6.22;4.60;;;;;;;10.37;37.38;94394.56;5103097;28;20237;-73
2023/04/07 08:00:45;;;;;;;7.32;3.50;;;;;;;10.76;36.97;94385.13;5095976;28;20221;-74
2023/04/07 08:03:12;;;;;;;6.13;4.13;;;;;;;10.51;37.57;94390.44;5096602;28;20198;-72
2023/04/07 08:05:39;;;;;;;4.07;2.33;;;;;;;10.38;37.37;94399.66;5075476;28;20210;-74
2023/04/07 08:08:06;;;;;;;5.82;3.10;;;;;;;10.36;37.36;94393.78;5087698;28;20210;-73
2023/04/07 08:10:33;;;;;;;6.03;4.50;;;;;;;10.55;38.07;94391.34;5082325;28;20201;-74
2023/04/07 08:13:00;;;;;;;7.43;4.40;;;;;;;9.86;40.83;94402.69;5096231;28;20660;-73
2023/04/07 08:15:26;;;;;;;6.80;4.00;;;;;;;10.19;38.60;94393.91;5101876;28;20720;-73
2023/04/07 08:17:54;;;;;;;5.32;3.20;;;;;;;10.74;37.41;94392.78;5103268;28;20235;-73
2023/04/07 08:20:21;;;;;;;5.93;2.88;;;;;;;10.86;37.21;94388.19;5096112;28;20750;-74
2023/04/07 08:22:48;;;;;;;3.75;2.60;;;;;;;10.42;37.28;94397.06;5094457;28;20518;-74
2023/04/07 08:25:15;;;;;;;3.33;2.55;;;;;;;10.84;38.58;94393.16;5083701;28;20201;-74
2023/04/07 08:27:42;;;;;;;8.18;3.30;;;;;;;10.90;38.30;94396.44;5095947;28;20210;-73
2023/04/07 08:30:09;;;;;;;8.55;4.47;;;;;;;10.76;36.88;94395.94;5089898;28;20199;-73
2023/04/07 08:32:36;;;;;;;5.28;3.13;;;;;;;11.25;37.77;94397.63;5096742;28;20204;-73
2023/04/07 08:35:05;;;;;;;7.38;4.43;;;;;;;10.90;36.94;94391.81;5096547;28;20285;-73
2023/04/07 08:37:32;;;;;;;8.45;4.97;;;;;;;10.85;37.82;94399.34;5094938;28;20230;-74
2023/04/07 08:39:59;;;;;;;7.25;3.58;;;;;;;10.45;37.77;94391.78;5101020;28;20218;-74
2023/04/07 08:42:29;;;;;;;6.00;3.80;;;;;;;10.86;36.93;94390.09;5102381;28;20205;-73
2023/04/07 08:44:58;;;;;;;6.25;3.40;;;;;;;10.91;37.28;94387.19;5079535;28;20299;-74
2023/04/07 08:47:26;;;;;;;6.47;3.33;;;;;;;10.59;37.79;94392.28;5087664;28;20210;-73
2023/04/07 08:49:56;;;;;;;6.10;4.25;;;;;;;10.36;39.03;94398.38;5098794;28;20634;-72
2023/04/07 08:52:32;;;;;;;5.38;2.88;;;;;;;10.57;39.16;94389.09;5102004;28;20657;-75
2023/04/07 08:55:01;;;;;;;4.95;3.63;;;;;;;11.15;37.11;94387.22;5100733;28;20201;-73
2023/04/07 08:57:30;;;;;;;8.55;5.20;;;;;;;12.10;37.53;94394.94;5094720;28;20274;-73
2023/04/07 09:00:01;;;;;;;7.80;4.63;;;;;;;11.16;37.01;94393.44;5083738;28;20226;-73
2023/04/07 09:02:28;;;;;;;8.30;5.75;;;;;;;10.95;38.10;94388.09;5101967;28;20206;-74
2023/04/07 09:04:56;;;;;;;6.40;4.50;;;;;;;11.03;37.68;94395.34;5102053;28;20266;-74
2023/04/07 09:07:24;;;;;;;7.80;4.28;;;;;;;10.87;37.20;94397.09;5081965;28;20202;-74
2023/04/07 09:09:51;;;;;;;6.00;4.63;;;;;;;11.39;37.37;94398.09;5094797;28;20771;-74
2023/04/07 09:12:18;;;;;;;6.00;4.47;;;;;;;11.30;36.54;94394.72;5101043;28;20921;-73
2023/04/07 09:14:44;;;;;;;6.30;4.50;;;;;;;11.52;37.58;94387.25;5101575;28;20942;-74
2023/04/07 09:17:11;;;;;;;5.85;4.22;;;;;;;11.25;36.15;94392.22;5095037;28;20229;-74
2023/04/07 09:19:38;;;;;;;7.10;4.32;;;;;;;11.49;35.54;94385.22;5107849;28;20251;-74
2023/04/07 09:22:05;;;;;;;6.57;4.47;;;;;;;11.52;36.11;94381.81;5095951;28;20202;-74
2023/04/07 09:24:33;;;;;;;6.45;4.50;;;;;;;11.76;35.62;94392.69;5092036;28;20627;-74
2023/04/07 09:27:11;;;;;;;8.63;4.50;;;;;;;12.14;34.93;94383.38;5076040;28;20670;-75
2023/04/07 09:29:39;;;;;;;6.43;4.22;;;;;;;12.08;35.71;94393.69;5077504;28;20304;-73
2023/04/07 09:32:06;;;;;;;10.27;4.40;;;;;;;12.04;35.24;94390.84;5098400;28;20205;-73
2023/04/07 09:34:34;;;;;;;8.07;4.13;;;;;;;11.60;36.72;94391.78;5094598;28;20197;-74
2023/04/07 09:37:01;;;;;;;5.88;4.10;;;;;;;11.76;36.36;94395.41;5096811;28;20233;-74
2023/04/07 09:39:28;;;;;;;4.80;3.97;;;;;;;11.58;38.24;94394.84;5101598;28;20285;-74
2023/04/07 09:41:57;;;;;;;6.60;4.47;;;;;;;11.49;36.27;94391.44;5098992;28;20254;-73
2023/04/07 09:44:25;;;;;;;7.88;5.13;;;;;;;10.78;38.10;94412.66;5084600;28;20249;-74
2023/04/07 09:46:53;;;;;;;9.73;5.60;;;;;;;10.67;38.31;94410.34;5091450;28;20198;-74
2023/04/07 09:49:20;;;;;;;7.15;5.32;;;;;;;10.32;38.48;94406.38;5094534;28;20207;-74
2023/04/07 09:51:54;;;;;;;6.40;4.45;;;;;;;9.90;39.86;94409.03;5095037;28;20206;-73
2023/04/07 09:54:33;;;;;;;8.38;4.70;;;;;;;10.02;39.35;94411.03;5080691;28;20202;-73
2023/04/07 09:57:02;;;;;;;10.00;5.40;;;;;;;10.22;39.73;94409.50;5093814;28;20791;-73
2023/04/07 09:59:30;;;;;;;7.78;5.20;;;;;;;10.28;39.65;94413.56;5098095;28;20295;-73
2023/04/07 10:01:57;;;;;;;9.18;5.93;;;;;;;9.47;40.22;94411.19;5100724;28;20684;-74
2023/04/07 10:04:25;;;;;;;6.82;4.55;;;;;;;9.81;40.21;94411.00;5096903;28;20234;-73
2023/04/07 10:06:53;;;;;;;7.35;5.22;;;;;;;9.66;41.75;94405.38;5093554;28;20209;-73
2023/04/07 10:09:20;;;;;;;9.25;5.32;;;;;;;9.56;39.47;94414.66;5097528;28;20673;-73
2023/04/07 10:11:47;;;;;;;10.77;5.50;;;;;;;10.58;39.61;94406.94;5101115;28;20210;-74
2023/04/07 10:14:15;;;;;;;7.10;4.38;;;;;;;11.08;39.03;94397.03;5097294;28;20193;-74
2023/04/07 10:16:43;;;;;;;8.63;5.03;;;;;;;11.14;37.70;94410.03;5093783;28;20244;-73
2023/04/07 10:19:10;;;;;;;11.85;5.47;;;;;;;11.45;37.30;94403.31;5097273;28;20234;-73
2023/04/07 10:21:41;;;;;;;8.82;5.00;;;;;;;11.57;38.42;94400.59;5101128;28;20210;-74
2023/04/07 10:24:21;;;;;;;9.52;5.10;;;;;;;10.66;39.16;94414.19;5076274;28;20297;-73
2023/04/07 10:26:53;;;;;;;7.82;5.75;;;;;;;10.52;38.83;94413.69;5100565;28;20315;-74
2023/04/07 10:29:22;;;;;;;10.20;5.15;;;;;;;10.47;38.79;94413.91;5097743;28;20198;-74
2023/04/07 10:31:49;;;;;;;10.65;4.90;;;;;;;10.51;40.05;94409.41;5099270;28;20202;-74
2023/04/07 10:34:17;;;;;;;7.93;5.40;;;;;;;10.57;38.94;94404.56;5074003;28;20256;-74
2023/04/07 10:37:09;;;;;;;7.28;5.07;;;;;;;10.72;38.60;94416.69;5095614;28;20201;-74
2023/04/07 10:39:37;;;;;;;8.70;4.97;;;;;;;10.75;38.58;94411.41;5093691;28;20767;-73
2023/04/07 10:42:04;;;;;;;6.82;4.45;;;;;;;10.85;38.09;94415.63;5094524;28;20781;-73
2023/04/07 10:44:49;;;;;;;8.52;5.43;;;;;;;10.42;39.64;94424.91;5073398;28;20263;-73
2023/04/07 10:47:16;;;;;;;9.20;5.55;;;;;;;10.48;40.47;94414.69;5100481;28;20935;-74
2023/04/07 10:50:17;;;;;;;8.15;4.90;;;;;;;10.90;39.65;94412.69;5095418;28;20894;-74
2023/04/07 10:52:45;;;;;;;8.27;4.53;;;;;;;10.56;38.96;94414.59;5069161;28;20301;-74
2023/04/07 10:55:32;;;;;;;5.88;4.07;;;;;;;10.09;39.79;94421.34;5104544;28;20205;-73
2023/04/07 10:58:16;;;;;;;7.30;5.35;;;;;;;9.25;42.99;94431.16;5100931;28;20229;-75
2023/04/07 11:01:20;;;;;;;11.80;4.72;;;;;;;9.02;44.13;94432.53;5097429;28;20221;-75
2023/04/07 11:04:00;;;;;;;15.00;6.13;;;;;;;8.94;44.98;94442.22;5097869;28;20205;-78
2023/04/07 11:06:27;;;;;;;3.92;2.47;;;;;;;8.72;44.52;94445.13;5098465;28;20625;-80
2023/04/07 11:08:54;;;;;;;1.98;1.50;;;;;;;8.38;44.88;94446.72;5104888;28;20329;-75
2023/04/07 11:11:40;;;;;;;3.88;3.00;;;;;;;8.68;44.73;94446.88;5103476;28;20826;-74
2023/04/07 11:14:07;;;;;;;7.18;2.55;;;;;;;8.59;45.22;94451.50;5088993;28;20660;-75
2023/04/07 11:16:43;;;;;;;10.30;4.88;;;;;;;9.02;45.94;94436.00;5107458;28;20579;-74
2023/04/07 11:19:10;;;;;;;10.02;4.13;;;;;;;8.60;44.81;94442.28;5090807;28;20230;-76
2023/04/07 11:21:37;;;;;;;5.03;2.80;;;;;;;8.42;45.73;94447.69;5103872;28;20210;-75
2023/04/07 11:24:04;;;;;;;5.05;2.97;;;;;;;8.48;45.99;94443.69;5090261;28;20541;-73
2023/04/07 11:26:37;;;;;;;2.90;2.25;;;;;;;8.84;44.32;94442.56;5104322;28;20217;-75
2023/04/07 11:29:04;;;;;;;7.15;3.60;;;;;;;9.29;44.78;94437.53;5078402;28;20222;-74
2023/04/07 11:31:32;;;;;;;2.65;1.50;;;;;;;9.63;43.42;94436.56;5102212;28;20198;-75
2023/04/07 11:34:02;;;;;;;10.65;3.03;;;;;;;9.85;43.50;94444.38;5078113;28;20207;-74
2023/04/07 11:36:31;;;;;;;3.50;2.42;;;;;;;9.81;42.94;94446.19;5103513;28;20236;-75
2023/04/07 11:38:58;;;;;;;5.63;3.53;;;;;;;9.62;44.03;94434.97;5103044;28;20230;-74
2023/04/07 11:41:26;;;;;;;9.70;4.00;;;;;;;9.33;44.96;94441.13;5096903;28;20202;-74